createdAt,value
2023-03-02T00:01:23.038Z,2.95
2023-03-02T00:03:49.893Z,2.82
2023-03-02T00:06:16.759Z,2.67
2023-03-02T00:08:43.710Z,3.02
2023-03-02T00:11:11.135Z,3.17
2023-03-02T00:13:38.509Z,3.20
2023-03-02T00:16:05.525Z,3.13
2023-03-02T00:18:31.959Z,2.87
2023-03-02T00:20:58.324Z,2.91
2023-03-02T00:23:24.797Z,3.00
2023-03-02T00:25:51.271Z,3.15
2023-03-02T00:28:17.701Z,3.22
2023-03-02T00:30:44.150Z,3.06
2023-03-02T00:33:10.554Z,3.09
2023-03-02T00:35:40.956Z,2.99
2023-03-02T00:38:08.192Z,3.14
2023-03-02T00:40:35.983Z,3.00
2023-03-02T00:43:02.372Z,3.10
2023-03-02T00:45:28.774Z,3.18
2023-03-02T00:47:55.451Z,3.03
2023-03-02T00:50:21.941Z,2.69
2023-03-02T00:52:48.391Z,2.80
2023-03-02T00:55:14.770Z,2.90
2023-03-02T00:57:41.219Z,2.89
2023-03-02T01:00:08.336Z,3.03
2023-03-02T01:02:34.816Z,2.87
2023-03-02T01:05:01.283Z,2.90
2023-03-02T01:07:28.491Z,2.96
2023-03-02T01:09:55.017Z,2.96
2023-03-02T01:12:21.414Z,2.94
2023-03-02T01:14:49.094Z,2.91
2023-03-02T01:17:15.748Z,3.00
2023-03-02T01:19:42.416Z,3.11
2023-03-02T01:22:09.386Z,3.13
2023-03-02T01:24:35.815Z,2.89
2023-03-02T01:27:02.285Z,2.63
2023-03-02T01:29:28.843Z,2.43
2023-03-02T01:31:55.376Z,2.18
2023-03-02T01:34:21.850Z,2.00
2023-03-02T01:36:48.260Z,1.93
2023-03-02T01:39:15.860Z,1.55
2023-03-02T01:41:46.572Z,1.50
2023-03-02T01:44:44.034Z,1.01
2023-03-02T01:47:15.343Z,0.98
2023-03-02T01:49:46.951Z,1.13
2023-03-02T01:52:13.631Z,1.10
2023-03-02T01:54:42.416Z,0.97
2023-03-02T01:57:10.061Z,0.95
2023-03-02T01:59:40.107Z,0.82
2023-03-02T02:02:08.957Z,0.80
2023-03-02T02:04:37.993Z,1.08
2023-03-02T02:07:07.166Z,0.73
2023-03-02T02:09:38.002Z,0.91
2023-03-02T02:12:05.851Z,0.81
2023-03-02T02:14:32.220Z,0.77
2023-03-02T02:16:58.651Z,0.83
2023-03-02T02:19:43.448Z,0.80
2023-03-02T02:22:11.088Z,0.82
2023-03-02T02:24:53.328Z,1.07
2023-03-02T02:27:19.774Z,1.11
2023-03-02T02:29:49.464Z,1.19
2023-03-02T02:32:28.420Z,0.91
2023-03-02T02:35:03.807Z,1.06
2023-03-02T02:37:33.433Z,1.06
2023-03-02T02:40:02.373Z,1.08
2023-03-02T02:42:32.942Z,1.19
2023-03-02T02:45:01.945Z,1.07
2023-03-02T02:47:29.046Z,0.97
2023-03-02T02:49:56.474Z,0.78
2023-03-02T02:52:26.335Z,0.83
2023-03-02T02:54:56.117Z,0.89
2023-03-02T02:57:26.598Z,0.92
2023-03-02T02:59:56.559Z,1.45
2023-03-02T03:02:26.279Z,1.74
2023-03-02T03:05:03.308Z,2.06
2023-03-02T03:07:31.495Z,2.31
2023-03-02T03:10:10.553Z,2.33
2023-03-02T03:12:39.660Z,2.46
2023-03-02T03:15:07.781Z,2.71
2023-03-02T03:17:34.173Z,2.62
2023-03-02T03:20:03.324Z,2.65
2023-03-02T03:22:29.664Z,2.06
2023-03-02T03:24:56.088Z,1.60
2023-03-02T03:27:22.430Z,1.24
2023-03-02T03:29:48.831Z,0.96
2023-03-02T03:32:15.281Z,0.96
2023-03-02T03:34:42.287Z,1.02
2023-03-02T03:37:11.787Z,0.93
2023-03-02T03:39:38.628Z,1.05
2023-03-02T03:42:05.982Z,0.99
2023-03-02T03:44:32.682Z,0.85
2023-03-02T03:46:59.615Z,0.71
2023-03-02T03:49:26.782Z,0.79
2023-03-02T03:51:53.345Z,0.89
2023-03-02T03:54:20.130Z,0.86
2023-03-02T03:56:49.039Z,0.91
2023-03-02T03:59:23.635Z,0.89
2023-03-02T04:01:56.355Z,1.13
2023-03-02T04:04:29.166Z,1.03
2023-03-02T04:06:56.423Z,0.94
2023-03-02T04:09:23.431Z,0.71
2023-03-02T04:11:53.171Z,0.50
2023-03-02T04:14:21.701Z,0.33
2023-03-02T04:16:48.220Z,0.20
2023-03-02T04:19:15.262Z,-0.19
2023-03-02T04:21:47.313Z,-0.16
2023-03-02T04:24:14.289Z,-0.47
2023-03-02T04:26:42.170Z,-0.13
2023-03-02T04:29:10.212Z,-0.37
2023-03-02T04:31:36.867Z,-0.37
2023-03-02T04:34:06.626Z,-0.31
2023-03-02T04:36:35.422Z,-0.49
2023-03-02T04:39:02.324Z,-0.48
2023-03-02T04:41:28.938Z,-0.61
2023-03-02T04:43:55.356Z,-0.35
2023-03-02T04:46:24.592Z,-0.55
2023-03-02T04:48:51.790Z,-0.61
2023-03-02T04:51:25.061Z,-0.58
2023-03-02T04:53:53.113Z,-0.76
2023-03-02T04:56:20.012Z,-0.81
2023-03-02T04:58:46.518Z,-0.98
2023-03-02T05:01:14.733Z,-1.08
2023-03-02T05:03:41.368Z,-1.05
2023-03-02T05:06:08.007Z,-0.85
2023-03-02T05:08:34.656Z,-0.45
2023-03-02T05:11:01.539Z,-0.52
2023-03-02T05:13:28.115Z,-0.13
2023-03-02T05:15:57.412Z,-0.04
2023-03-02T05:18:25.016Z,-0.42
2023-03-02T05:20:52.847Z,-0.44
2023-03-02T05:23:28.328Z,-0.42
2023-03-02T05:25:56.020Z,-0.56
2023-03-02T05:28:25.302Z,-0.64
2023-03-02T05:30:52.286Z,-0.74
2023-03-02T05:33:19.678Z,-0.76
2023-03-02T05:35:46.781Z,-0.66
2023-03-02T05:38:13.494Z,-0.69
2023-03-02T05:40:40.617Z,-1.01
2023-03-02T05:43:07.072Z,-0.96
2023-03-02T05:45:38.229Z,-1.02
2023-03-02T05:48:05.456Z,-1.00
2023-03-02T05:50:33.040Z,-0.90
2023-03-02T05:53:00.234Z,-0.97
2023-03-02T05:55:26.736Z,-0.89
2023-03-02T05:57:53.112Z,-0.99
2023-03-02T06:00:20.311Z,-1.07
2023-03-02T06:02:46.938Z,-1.09
2023-03-02T06:05:18.373Z,-1.26
2023-03-02T06:07:45.438Z,-1.25
2023-03-02T06:10:13.663Z,-1.27
2023-03-02T06:12:40.884Z,-1.32
2023-03-02T06:15:08.338Z,-1.28
2023-03-02T06:17:34.764Z,-1.38
2023-03-02T06:20:01.273Z,-1.28
2023-03-02T06:22:31.092Z,-1.22
2023-03-02T06:24:57.543Z,-1.14
2023-03-02T06:27:23.896Z,-1.00
2023-03-02T06:29:50.315Z,-0.87
2023-03-02T06:32:16.938Z,-0.85
2023-03-02T06:34:43.391Z,-0.88
2023-03-02T06:37:10.442Z,-0.96
2023-03-02T06:39:36.918Z,-0.78
2023-03-02T06:42:03.290Z,-0.75
2023-03-02T06:44:29.754Z,-0.57
2023-03-02T06:46:56.258Z,-0.68
2023-03-02T06:49:22.680Z,-0.76
2023-03-02T06:51:49.076Z,-0.63
2023-03-02T06:54:15.426Z,-0.65
2023-03-02T06:56:41.806Z,-0.57
2023-03-02T06:59:08.207Z,-0.53
2023-03-02T07:01:36.199Z,-0.42
2023-03-02T07:04:03.712Z,-0.44
2023-03-02T07:06:30.227Z,-0.25
2023-03-02T07:08:56.688Z,-0.07
2023-03-02T07:11:23.108Z,0.09
2023-03-02T07:13:49.725Z,0.09
2023-03-02T07:16:16.692Z,0.25
2023-03-02T07:18:43.275Z,0.33
2023-03-02T07:21:09.818Z,0.49
2023-03-02T07:23:36.228Z,0.59
2023-03-02T07:26:02.612Z,0.64
2023-03-02T07:28:29.011Z,0.83
2023-03-02T07:30:55.519Z,0.78
2023-03-02T07:33:22.439Z,0.90
2023-03-02T07:35:49.063Z,1.06
2023-03-02T07:38:15.574Z,1.24
2023-03-02T07:40:43.167Z,1.45
2023-03-02T07:43:10.335Z,1.80
2023-03-02T07:45:38.328Z,2.07
2023-03-02T07:48:05.575Z,2.93
2023-03-02T07:50:32.522Z,3.35
2023-03-02T07:53:00.002Z,3.45
2023-03-02T07:55:27.098Z,3.58
2023-03-02T07:57:53.692Z,3.30
2023-03-02T08:00:21.012Z,3.47
2023-03-02T08:02:47.665Z,3.59
2023-03-02T08:05:14.117Z,4.06
2023-03-02T08:07:43.886Z,4.41
2023-03-02T08:10:11.298Z,4.46
2023-03-02T08:12:37.768Z,4.73
2023-03-02T08:15:05.163Z,4.90
2023-03-02T08:17:31.713Z,5.10
2023-03-02T08:19:58.152Z,5.20
2023-03-02T08:22:24.531Z,5.18
2023-03-02T08:24:50.917Z,5.41
2023-03-02T08:27:17.347Z,5.54
2023-03-02T08:29:43.720Z,5.57
2023-03-02T08:32:10.263Z,5.60
2023-03-02T08:34:36.731Z,5.81
2023-03-02T08:37:03.167Z,5.70
2023-03-02T08:39:31.244Z,5.77
2023-03-02T08:41:57.911Z,5.92
2023-03-02T08:44:24.352Z,5.92
2023-03-02T08:46:51.370Z,5.91
2023-03-02T08:49:19.553Z,6.13
2023-03-02T08:51:46.813Z,6.15
2023-03-02T08:54:13.332Z,6.25
2023-03-02T08:56:40.180Z,6.34
2023-03-02T08:59:12.774Z,6.38
2023-03-02T09:01:40.096Z,6.55
2023-03-02T09:04:09.415Z,6.44
2023-03-02T09:06:43.111Z,6.38
2023-03-02T09:09:11.210Z,6.39
2023-03-02T09:11:38.911Z,6.65
2023-03-02T09:14:05.465Z,6.58
2023-03-02T09:16:32.079Z,6.63
2023-03-02T09:18:58.667Z,6.72
2023-03-02T09:21:25.280Z,6.70
2023-03-02T09:23:57.974Z,6.89
2023-03-02T09:26:26.116Z,7.05
2023-03-02T09:28:53.106Z,6.87
2023-03-02T09:31:19.853Z,7.11
2023-03-02T09:33:46.295Z,7.05
2023-03-02T09:36:19.924Z,6.97
2023-03-02T09:38:46.964Z,7.17
2023-03-02T09:41:19.719Z,7.30
2023-03-02T09:44:24.305Z,7.50
2023-03-02T09:47:03.539Z,7.42
2023-03-02T09:50:03.155Z,7.33
2023-03-02T09:52:33.618Z,7.30
2023-03-02T09:55:11.362Z,7.52
2023-03-02T09:57:39.796Z,7.61
2023-03-02T10:00:19.093Z,7.67
2023-03-02T10:02:48.371Z,7.79
2023-03-02T10:05:22.761Z,7.83
2023-03-02T10:07:49.384Z,7.65
2023-03-02T10:10:28.958Z,7.64
2023-03-02T10:13:27.585Z,7.67
2023-03-02T10:16:15.170Z,7.80
2023-03-02T10:18:49.592Z,8.14
2023-03-02T10:21:40.884Z,8.20
2023-03-02T10:24:21.043Z,8.18
2023-03-02T10:26:57.678Z,8.15
2023-03-02T10:29:47.419Z,8.13
2023-03-02T10:32:24.359Z,8.16
2023-03-02T10:34:52.723Z,8.06
2023-03-02T10:37:24.859Z,8.27
2023-03-02T10:39:52.316Z,8.44
2023-03-02T10:42:25.834Z,8.25
2023-03-02T10:44:55.824Z,8.47
2023-03-02T10:47:28.452Z,8.65
2023-03-02T10:49:57.407Z,8.58
2023-03-02T10:52:26.447Z,8.58
2023-03-02T10:55:14.240Z,8.99
2023-03-02T10:57:43.345Z,8.90
2023-03-02T11:00:25.340Z,8.54
2023-03-02T11:02:56.790Z,8.76
2023-03-02T11:05:35.265Z,8.75
2023-03-02T11:08:03.372Z,8.83
2023-03-02T11:10:38.589Z,9.01
2023-03-02T11:13:27.452Z,9.12
2023-03-02T11:15:59.606Z,8.96
2023-03-02T11:18:28.177Z,8.95
2023-03-02T11:21:03.295Z,9.05
2023-03-02T11:23:32.812Z,9.17
2023-03-02T11:26:06.141Z,9.09
2023-03-02T11:28:59.319Z,9.46
2023-03-02T11:31:36.901Z,9.57
2023-03-02T11:34:28.715Z,9.48
2023-03-02T11:37:05.881Z,9.38
2023-03-02T11:39:54.609Z,9.42
2023-03-02T11:42:30.430Z,9.62
2023-03-02T11:45:01.825Z,9.82
2023-03-02T11:47:31.558Z,9.83
2023-03-02T11:50:03.629Z,9.75
2023-03-02T11:52:32.694Z,9.69
2023-03-02T11:55:04.857Z,9.91
2023-03-02T11:57:38.696Z,9.80
2023-03-02T12:00:18.934Z,10.00
2023-03-02T12:02:45.445Z,9.99
2023-03-02T12:05:27.813Z,9.91
2023-03-02T12:08:27.340Z,10.15
2023-03-02T12:11:01.584Z,10.53
2023-03-02T12:13:39.054Z,10.50
2023-03-02T12:16:35.176Z,10.55
2023-03-02T12:19:17.846Z,10.30
2023-03-02T12:21:55.956Z,10.19
2023-03-02T12:24:29.886Z,10.14
2023-03-02T12:27:04.255Z,10.39
2023-03-02T12:29:47.056Z,10.69
2023-03-02T12:32:23.999Z,10.58
2023-03-02T12:35:01.207Z,10.62
2023-03-02T12:37:31.650Z,10.83
2023-03-02T12:40:19.383Z,10.86
2023-03-02T12:42:54.522Z,11.00
2023-03-02T12:45:48.700Z,11.21
2023-03-02T12:48:40.726Z,11.14
2023-03-02T12:51:24.168Z,11.23
2023-03-02T12:54:02.494Z,10.92
2023-03-02T12:56:28.873Z,11.10
2023-03-02T12:58:55.266Z,11.46
2023-03-02T13:01:24.876Z,11.49
2023-03-02T13:03:52.801Z,11.64
2023-03-02T13:06:20.676Z,11.47
2023-03-02T13:08:51.038Z,11.46
2023-03-02T13:11:25.610Z,11.45
2023-03-02T13:13:52.099Z,11.39
2023-03-02T13:16:24.706Z,11.54
2023-03-02T13:18:56.888Z,11.72
2023-03-02T13:21:30.620Z,11.66
2023-03-02T13:23:57.067Z,11.82
2023-03-02T13:26:36.060Z,11.61
2023-03-02T13:29:06.283Z,11.71
2023-03-02T13:31:34.706Z,11.78
2023-03-02T13:34:01.447Z,11.90
2023-03-02T13:36:34.565Z,11.89
2023-03-02T13:39:02.290Z,12.03
2023-03-02T13:41:31.042Z,11.79
2023-03-02T13:43:58.611Z,11.79
2023-03-02T13:46:41.031Z,11.76
2023-03-02T13:49:11.762Z,12.11
2023-03-02T13:51:48.893Z,12.04
2023-03-02T13:54:27.678Z,12.23
2023-03-02T13:56:55.037Z,12.06
2023-03-02T13:59:22.362Z,12.12
2023-03-02T14:01:49.033Z,12.04
2023-03-02T14:04:18.489Z,12.18
2023-03-02T14:06:45.776Z,12.22
2023-03-02T14:09:12.490Z,12.36
2023-03-02T14:11:43.714Z,12.45
2023-03-02T14:14:19.647Z,12.40
2023-03-02T14:16:46.154Z,12.27
2023-03-02T14:19:13.710Z,12.38
2023-03-02T14:21:41.056Z,12.52
2023-03-02T14:24:07.784Z,12.37
2023-03-02T14:26:40.812Z,12.46
2023-03-02T14:29:22.102Z,12.51
2023-03-02T14:31:48.733Z,12.38
2023-03-02T14:34:16.484Z,12.51
2023-03-02T14:36:46.088Z,12.53
2023-03-02T14:39:28.453Z,12.34
2023-03-02T14:41:55.721Z,12.32
2023-03-02T14:44:22.638Z,12.67
2023-03-02T14:46:49.527Z,12.37
2023-03-02T14:49:16.065Z,12.20
2023-03-02T14:51:44.928Z,12.42
2023-03-02T14:54:18.946Z,12.39
2023-03-02T14:56:46.064Z,12.36
2023-03-02T14:59:13.963Z,12.28
2023-03-02T15:01:41.180Z,12.39
2023-03-02T15:04:07.648Z,12.30
2023-03-02T15:06:38.484Z,12.31
2023-03-02T15:09:06.157Z,12.30
2023-03-02T15:11:32.924Z,12.24
2023-03-02T15:13:59.647Z,12.14
2023-03-02T15:16:26.184Z,12.21
2023-03-02T15:18:53.032Z,12.37
2023-03-02T15:21:22.244Z,12.30
2023-03-02T15:23:49.284Z,12.22
2023-03-02T15:26:15.727Z,12.36
2023-03-02T15:28:42.475Z,12.33
2023-03-02T15:31:14.410Z,12.34
2023-03-02T15:33:41.673Z,12.35
2023-03-02T15:36:08.295Z,12.29
2023-03-02T15:38:36.588Z,12.40
2023-03-02T15:41:07.766Z,12.43
2023-03-02T15:43:34.638Z,12.36
2023-03-02T15:46:02.163Z,12.28
2023-03-02T15:48:30.109Z,12.24
2023-03-02T15:51:01.113Z,12.15
2023-03-02T15:53:29.131Z,12.15
2023-03-02T15:55:56.145Z,12.20
2023-03-02T15:58:23.311Z,12.10
2023-03-02T16:00:51.043Z,11.90
2023-03-02T16:03:19.220Z,11.98
2023-03-02T16:05:45.839Z,11.84
2023-03-02T16:08:12.372Z,11.83
2023-03-02T16:10:40.024Z,11.79
2023-03-02T16:13:06.563Z,11.74
2023-03-02T16:15:40.371Z,11.74
2023-03-02T16:18:07.997Z,11.78
2023-03-02T16:20:36.170Z,11.79
2023-03-02T16:23:05.998Z,11.57
2023-03-02T16:25:34.508Z,11.71
2023-03-02T16:28:02.713Z,11.57
2023-03-02T16:30:30.618Z,11.46
2023-03-02T16:32:58.889Z,11.38
2023-03-02T16:35:25.854Z,11.22
2023-03-02T16:37:52.275Z,11.00
2023-03-02T16:40:18.768Z,10.96
2023-03-02T16:42:45.244Z,10.95
2023-03-02T16:45:11.965Z,10.81
2023-03-02T16:47:38.544Z,10.73
2023-03-02T16:50:06.206Z,10.63
2023-03-02T16:52:32.715Z,10.55
2023-03-02T16:54:59.202Z,10.47
2023-03-02T16:57:25.657Z,10.24
2023-03-02T16:59:52.124Z,10.15
2023-03-02T17:02:18.628Z,10.08
2023-03-02T17:04:45.137Z,10.00
2023-03-02T17:07:11.620Z,10.03
2023-03-02T17:09:41.586Z,10.01
2023-03-02T17:12:08.469Z,9.87
2023-03-02T17:14:34.877Z,9.55
2023-03-02T17:17:03.572Z,9.31
2023-03-02T17:19:29.959Z,9.29
2023-03-02T17:21:58.397Z,9.26
2023-03-02T17:24:25.267Z,9.28
2023-03-02T17:26:51.643Z,9.36
2023-03-02T17:29:18.181Z,9.09
2023-03-02T17:31:44.910Z,9.16
2023-03-02T17:34:11.954Z,9.26
2023-03-02T17:36:38.461Z,9.12
2023-03-02T17:39:05.268Z,8.96
2023-03-02T17:41:32.762Z,9.14
2023-03-02T17:44:00.538Z,9.05
2023-03-02T17:46:27.232Z,9.12
2023-03-02T17:48:57.440Z,9.25
2023-03-02T17:51:24.847Z,9.11
2023-03-02T17:53:52.803Z,9.10
2023-03-02T17:56:22.111Z,9.11
2023-03-02T17:59:00.894Z,9.24
2023-03-02T18:01:28.599Z,9.06
2023-03-02T18:03:55.233Z,9.00
2023-03-02T18:06:21.999Z,8.92
2023-03-02T18:08:50.520Z,8.76
2023-03-02T18:11:19.318Z,8.61
2023-03-02T18:13:45.862Z,8.63
2023-03-02T18:16:12.466Z,8.48
2023-03-02T18:18:39.078Z,8.51
2023-03-02T18:21:05.986Z,8.41
2023-03-02T18:23:33.217Z,8.30
2023-03-02T18:25:59.660Z,8.33
2023-03-02T18:28:26.294Z,8.57
2023-03-02T18:30:52.708Z,8.74
2023-03-02T18:33:19.104Z,8.65
2023-03-02T18:35:45.654Z,8.76
2023-03-02T18:38:12.033Z,8.44
2023-03-02T18:40:38.507Z,8.24
2023-03-02T18:43:04.929Z,7.86
2023-03-02T18:45:32.769Z,7.40
2023-03-02T18:48:01.026Z,7.85
2023-03-02T18:50:29.014Z,8.20
2023-03-02T18:52:55.501Z,7.73
2023-03-02T18:55:23.775Z,7.80
2023-03-02T18:57:50.491Z,8.15
2023-03-02T19:00:21.600Z,8.09
2023-03-02T19:02:48.379Z,7.99
2023-03-02T19:05:14.957Z,7.68
2023-03-02T19:07:41.582Z,7.77
2023-03-02T19:10:08.600Z,7.61
2023-03-02T19:12:35.363Z,7.74
2023-03-02T19:15:02.167Z,7.66
2023-03-02T19:17:28.584Z,7.66
2023-03-02T19:19:55.005Z,7.43
2023-03-02T19:22:21.426Z,6.50
2023-03-02T19:24:47.799Z,6.28
2023-03-02T19:27:14.291Z,6.24
2023-03-02T19:29:41.079Z,6.34
2023-03-02T19:32:08.329Z,6.15
2023-03-02T19:34:34.823Z,5.73
2023-03-02T19:37:03.043Z,5.75
2023-03-02T19:39:29.451Z,5.81
2023-03-02T19:41:55.935Z,5.38
2023-03-02T19:44:22.362Z,5.44
2023-03-02T19:46:48.935Z,5.30
2023-03-02T19:49:15.457Z,5.03
2023-03-02T19:51:41.816Z,5.08
2023-03-02T19:54:08.311Z,5.12
2023-03-02T19:56:39.495Z,4.90
2023-03-02T19:59:07.829Z,4.80
2023-03-02T20:01:34.542Z,4.66
2023-03-02T20:04:01.915Z,4.39
2023-03-02T20:06:31.783Z,4.27
2023-03-02T20:09:01.290Z,4.24
2023-03-02T20:11:30.550Z,4.10
2023-03-02T20:14:02.082Z,3.92
2023-03-02T20:16:30.554Z,3.91
2023-03-02T20:18:58.114Z,3.98
2023-03-02T20:21:27.384Z,3.75
2023-03-02T20:23:54.562Z,3.75
2023-03-02T20:26:22.160Z,3.76
2023-03-02T20:28:48.983Z,3.60
2023-03-02T20:31:16.089Z,3.38
2023-03-02T20:33:46.563Z,3.22
2023-03-02T20:36:16.663Z,3.27
2023-03-02T20:38:47.804Z,3.14
2023-03-02T20:41:14.764Z,2.95
2023-03-02T20:43:42.487Z,3.12
2023-03-02T20:46:12.659Z,2.97
2023-03-02T20:48:39.212Z,2.88
2023-03-02T20:51:06.068Z,2.89
2023-03-02T20:53:32.511Z,2.95
2023-03-02T20:55:59.200Z,2.98
2023-03-02T20:58:25.824Z,2.79
2023-03-02T21:00:53.689Z,2.88
2023-03-02T21:03:20.161Z,2.55
2023-03-02T21:05:47.238Z,2.40
2023-03-02T21:08:14.791Z,2.73
2023-03-02T21:10:42.930Z,2.24
2023-03-02T21:13:10.564Z,2.53
2023-03-02T21:15:37.736Z,2.55
2023-03-02T21:18:04.456Z,2.19
2023-03-02T21:20:33.006Z,2.09
2023-03-02T21:22:59.762Z,2.08
2023-03-02T21:25:26.230Z,2.05
2023-03-02T21:27:52.766Z,1.99
2023-03-02T21:30:23.929Z,2.05
2023-03-02T21:32:50.584Z,1.88
2023-03-02T21:35:22.007Z,1.76
2023-03-02T21:37:50.722Z,1.63
2023-03-02T21:40:21.664Z,1.75
2023-03-02T21:42:48.388Z,1.73
2023-03-02T21:45:15.056Z,1.72
2023-03-02T21:47:43.229Z,1.93
2023-03-02T21:50:16.764Z,1.88
2023-03-02T21:52:43.477Z,1.58
2023-03-02T21:55:10.539Z,1.59
2023-03-02T21:57:37.075Z,1.60
2023-03-02T22:00:05.194Z,1.41
2023-03-02T22:02:32.545Z,1.26
2023-03-02T22:04:58.946Z,1.25
2023-03-02T22:07:25.418Z,1.72
2023-03-02T22:09:52.524Z,1.70
2023-03-02T22:12:22.328Z,1.74
2023-03-02T22:14:48.869Z,1.59
2023-03-02T22:17:24.720Z,1.52
2023-03-02T22:19:52.219Z,1.26
2023-03-02T22:22:24.244Z,1.43
2023-03-02T22:24:52.060Z,1.39
2023-03-02T22:27:26.754Z,1.16
2023-03-02T22:29:57.695Z,1.04
2023-03-02T22:32:27.486Z,1.05
2023-03-02T22:34:59.563Z,0.98
2023-03-02T22:37:32.951Z,1.13
2023-03-02T22:40:07.409Z,1.05
2023-03-02T22:42:33.900Z,1.11
2023-03-02T22:45:15.468Z,1.22
2023-03-02T22:47:49.033Z,1.18
2023-03-02T22:50:27.085Z,1.19
2023-03-02T22:52:56.020Z,1.21
2023-03-02T22:55:39.362Z,1.23
2023-03-02T22:58:40.284Z,1.07
2023-03-02T23:01:18.966Z,1.09
2023-03-02T23:03:47.624Z,0.71
2023-03-02T23:06:23.562Z,0.64
2023-03-02T23:08:51.374Z,0.79
2023-03-02T23:11:20.641Z,0.72
2023-03-02T23:13:47.386Z,0.57
2023-03-02T23:16:24.821Z,0.47
2023-03-02T23:18:53.774Z,0.65
2023-03-02T23:21:30.770Z,0.52
2023-03-02T23:23:57.179Z,0.41
2023-03-02T23:26:23.609Z,0.26
2023-03-02T23:28:50.661Z,0.21
2023-03-02T23:31:18.434Z,0.25
2023-03-02T23:33:45.518Z,0.09
2023-03-02T23:36:12.897Z,0.06
2023-03-02T23:38:40.591Z,0.24
2023-03-02T23:41:08.116Z,0.50
2023-03-02T23:43:35.540Z,0.32
2023-03-02T23:46:02.133Z,-0.02
2023-03-02T23:48:28.721Z,-0.23
2023-03-02T23:50:55.084Z,-0.12
2023-03-02T23:53:21.487Z,0.06
2023-03-02T23:55:50.251Z,-0.04
2023-03-02T23:58:17.089Z,-0.17
